createdAt,value
2018-03-01T00:00:34.590Z,68.20
2018-03-01T00:03:02.104Z,68.70
2018-03-01T00:05:29.595Z,68.50
2018-03-01T00:07:57.112Z,68.50
2018-03-01T00:10:24.610Z,68.40
2018-03-01T00:12:52.136Z,68.20
2018-03-01T00:15:20.397Z,68.10
2018-03-01T00:17:47.909Z,68.00
2018-03-01T00:20:15.403Z,67.90
2018-03-01T00:22:42.919Z,68.20
2018-03-01T00:25:10.422Z,68.40
2018-03-01T00:27:37.963Z,69.30
2018-03-01T00:30:05.459Z,68.30
2018-03-01T00:32:32.999Z,68.20
2018-03-01T00:35:01.272Z,68.50
2018-03-01T00:37:28.788Z,68.40
2018-03-01T00:39:56.289Z,68.80
2018-03-01T00:42:23.811Z,68.70
2018-03-01T00:44:52.076Z,68.90
2018-03-01T00:47:19.596Z,68.80
2018-03-01T00:49:47.099Z,69.10
2018-03-01T00:52:14.619Z,69.70
2018-03-01T00:54:42.881Z,69.00
2018-03-01T00:57:10.400Z,68.90
2018-03-01T00:59:37.912Z,68.60
2018-03-01T01:02:05.444Z,69.20
2018-03-01T01:04:32.936Z,69.20
2018-03-01T01:07:00.451Z,68.90
2018-03-01T01:09:28.713Z,68.40
2018-03-01T01:11:56.229Z,68.40
2018-03-01T01:14:23.720Z,68.70
2018-03-01T01:16:51.211Z,68.40
2018-03-01T01:19:18.720Z,68.00
2018-03-01T01:21:46.976Z,68.40
2018-03-01T01:24:14.487Z,68.40
2018-03-01T01:26:42.744Z,67.90
2018-03-01T01:29:10.265Z,67.90
2018-03-01T01:31:37.758Z,68.40
2018-03-01T01:34:05.281Z,68.70
2018-03-01T01:36:32.785Z,68.70
2018-03-01T01:39:00.295Z,68.50
2018-03-01T01:41:27.787Z,68.50
2018-03-01T01:43:55.295Z,68.00
2018-03-01T01:46:22.784Z,68.50
2018-03-01T01:48:50.309Z,69.10
2018-03-01T01:51:18.573Z,68.70
2018-03-01T01:53:46.861Z,68.30
2018-03-01T01:56:14.356Z,68.30
2018-03-01T01:58:41.870Z,68.10
2018-03-01T02:01:09.364Z,69.40
2018-03-01T02:03:36.879Z,69.60
2018-03-01T02:06:04.377Z,69.50
2018-03-01T02:08:31.887Z,69.10
2018-03-01T02:11:00.143Z,68.90
2018-03-01T02:13:27.665Z,68.80
2018-03-01T02:15:55.159Z,68.80
2018-03-01T02:18:22.680Z,68.80
2018-03-01T02:20:50.173Z,68.80
2018-03-01T02:23:17.687Z,69.40
2018-03-01T02:25:45.192Z,70.20
2018-03-01T02:28:12.709Z,70.30
2018-03-01T02:30:40.215Z,70.20
2018-03-01T02:33:07.723Z,69.70
2018-03-01T02:35:35.223Z,69.70
2018-03-01T02:38:02.732Z,69.60
2018-03-01T02:40:30.255Z,69.70
2018-03-01T02:42:57.776Z,70.30
2018-03-01T02:45:25.273Z,70.40
2018-03-01T02:47:53.552Z,70.40
2018-03-01T02:50:21.817Z,70.40
2018-03-01T02:52:49.331Z,70.40
2018-03-01T02:55:16.820Z,70.40
2018-03-01T02:57:44.331Z,70.40
2018-03-01T03:00:11.825Z,70.30
2018-03-01T03:02:40.112Z,70.50
2018-03-01T03:05:08.372Z,70.80
2018-03-01T03:07:35.882Z,70.70
2018-03-01T03:10:03.367Z,70.60
2018-03-01T03:12:30.875Z,70.70
2018-03-01T03:14:58.368Z,70.90
2018-03-01T03:17:25.888Z,71.40
2018-03-01T03:19:53.376Z,71.50
2018-03-01T03:22:20.872Z,71.60
2018-03-01T03:24:48.392Z,72.00
2018-03-01T03:27:15.887Z,71.80
2018-03-01T03:29:43.403Z,71.60
2018-03-01T03:32:10.892Z,71.70
2018-03-01T03:34:38.400Z,71.70
2018-03-01T03:37:05.886Z,71.70
2018-03-01T03:39:33.399Z,71.90
2018-03-01T03:42:00.884Z,72.50
2018-03-01T03:44:28.413Z,72.50
2018-03-01T03:46:55.923Z,72.10
2018-03-01T03:49:23.454Z,72.80
2018-03-01T03:51:51.714Z,72.40
2018-03-01T03:54:19.227Z,72.30
2018-03-01T03:56:46.719Z,72.30
2018-03-01T03:59:14.227Z,72.80
2018-03-01T04:01:41.716Z,72.90
2018-03-01T04:04:09.229Z,72.90
2018-03-01T04:06:37.491Z,73.70
2018-03-01T04:09:05.005Z,73.60
2018-03-01T04:11:32.506Z,73.30
2018-03-01T04:14:00.021Z,73.70
2018-03-01T04:16:27.519Z,73.00
2018-03-01T04:18:55.031Z,73.00
2018-03-01T04:21:22.528Z,73.40
2018-03-01T04:23:50.036Z,73.30
2018-03-01T04:26:17.533Z,73.30
2018-03-01T04:28:45.053Z,73.20
2018-03-01T04:31:12.548Z,73.00
2018-03-01T04:33:40.065Z,73.20
2018-03-01T04:36:08.315Z,73.50
2018-03-01T04:38:35.828Z,73.40
2018-03-01T04:41:04.080Z,73.20
2018-03-01T04:43:31.589Z,73.10
2018-03-01T04:45:59.842Z,73.40
2018-03-01T04:48:27.359Z,73.30
2018-03-01T04:50:54.852Z,73.20
2018-03-01T04:53:22.363Z,73.50
2018-03-01T04:55:49.846Z,74.00
2018-03-01T04:58:18.128Z,73.90
2018-03-01T05:00:45.615Z,73.90
2018-03-01T05:03:13.107Z,73.80
2018-03-01T05:05:40.607Z,74.50
2018-03-01T05:08:08.092Z,74.40
2018-03-01T05:10:35.599Z,74.10
2018-03-01T05:13:03.846Z,73.80
2018-03-01T05:15:31.356Z,73.90
2018-03-01T05:17:58.863Z,73.90
2018-03-01T05:20:26.376Z,73.90
2018-03-01T05:22:53.896Z,73.60
2018-03-01T05:25:21.413Z,73.40
2018-03-01T05:27:48.901Z,74.00
2018-03-01T05:30:16.506Z,73.60
2018-03-01T05:32:44.016Z,74.30
2018-03-01T05:35:11.543Z,73.60
2018-03-01T05:37:39.036Z,73.50
2018-03-01T05:40:06.584Z,73.50
2018-03-01T05:42:34.084Z,73.70
2018-03-01T05:45:01.595Z,73.60
2018-03-01T05:47:30.154Z,73.70
2018-03-01T05:49:59.217Z,73.60
2018-03-01T05:52:26.705Z,74.00
2018-03-01T05:54:55.051Z,74.30
2018-03-01T05:57:22.588Z,74.20
2018-03-01T05:59:50.103Z,74.10
2018-03-01T06:02:18.395Z,73.80
2018-03-01T06:04:46.671Z,73.60
2018-03-01T06:07:14.929Z,73.50
2018-03-01T06:09:42.435Z,73.30
2018-03-01T06:12:10.684Z,73.90
2018-03-01T06:14:38.195Z,73.90
2018-03-01T06:17:06.451Z,73.50
2018-03-01T06:19:33.970Z,73.40
2018-03-01T06:22:01.466Z,73.90
2018-03-01T06:24:28.965Z,73.70
2018-03-01T06:26:56.471Z,73.70
2018-03-01T06:29:24.724Z,73.70
2018-03-01T06:31:52.289Z,73.70
2018-03-01T06:34:19.783Z,73.60
2018-03-01T06:36:47.287Z,73.50
2018-03-01T06:39:14.776Z,73.60
2018-03-01T06:41:42.282Z,73.50
2018-03-01T06:44:09.768Z,74.20
2018-03-01T06:46:38.089Z,73.30
2018-03-01T06:49:05.554Z,73.30
2018-03-01T06:51:33.059Z,72.80
2018-03-01T06:54:00.543Z,73.00
2018-03-01T06:56:28.043Z,73.10
2018-03-01T06:58:55.528Z,72.90
2018-03-01T07:01:23.031Z,72.40
2018-03-01T07:03:50.511Z,72.30
2018-03-01T07:06:18.023Z,72.00
2018-03-01T07:08:46.267Z,72.10
2018-03-01T07:11:13.805Z,72.10
2018-03-01T07:13:42.032Z,77.50
2018-03-01T07:16:09.542Z,77.50
2018-03-01T07:18:37.795Z,77.30
2018-03-01T07:21:05.311Z,77.30
2018-03-01T07:23:33.555Z,74.70
2018-03-01T07:26:01.044Z,74.60
2018-03-01T07:28:28.548Z,72.00
2018-03-01T07:30:56.036Z,71.00
2018-03-01T07:33:23.543Z,71.70
2018-03-01T07:35:51.024Z,72.40
2018-03-01T07:38:18.526Z,72.00
2018-03-01T07:40:46.013Z,71.60
2018-03-01T07:43:13.515Z,71.80
2018-03-01T07:45:40.996Z,70.70
2018-03-01T07:48:08.504Z,71.60
2018-03-01T07:50:35.995Z,71.20
2018-03-01T07:53:03.499Z,70.90
2018-03-01T07:55:30.984Z,70.40
2018-03-01T07:57:58.488Z,70.10
2018-03-01T08:00:25.976Z,69.40
2018-03-01T08:02:53.460Z,70.10
2018-03-01T08:05:20.964Z,69.70
2018-03-01T08:07:48.444Z,70.00
2018-03-01T08:10:16.716Z,69.30
2018-03-01T08:12:44.208Z,69.20
2018-03-01T08:15:12.476Z,68.60
2018-03-01T08:17:39.963Z,68.60
2018-03-01T08:20:08.236Z,67.80
2018-03-01T08:22:35.716Z,67.60
2018-03-01T08:25:03.220Z,68.20
2018-03-01T08:27:30.708Z,67.40
2018-03-01T08:29:58.212Z,67.80
2018-03-01T08:32:25.695Z,67.40
2018-03-01T08:34:53.196Z,66.90
2018-03-01T08:37:20.700Z,66.50
2018-03-01T08:39:48.207Z,66.00
2018-03-01T08:42:15.691Z,65.40
2018-03-01T08:44:43.979Z,63.90
2018-03-01T08:47:12.231Z,63.90
2018-03-01T08:49:39.740Z,63.70
2018-03-01T08:52:07.991Z,63.60
2018-03-01T08:54:35.508Z,63.50
2018-03-01T08:57:02.998Z,63.20
2018-03-01T08:59:30.488Z,63.20
2018-03-01T09:01:57.983Z,62.60
2018-03-01T09:04:25.471Z,62.50
2018-03-01T09:06:53.751Z,61.80
2018-03-01T09:09:21.999Z,62.30
2018-03-01T09:11:49.497Z,62.10
2018-03-01T09:14:16.980Z,62.10
2018-03-01T09:16:45.256Z,62.30
2018-03-01T09:19:12.742Z,61.90
2018-03-01T09:21:41.013Z,60.20
2018-03-01T09:24:08.496Z,60.10
2018-03-01T09:26:35.999Z,59.50
2018-03-01T09:29:03.488Z,59.50
2018-03-01T09:31:30.986Z,58.80
2018-03-01T09:33:58.475Z,58.40
2018-03-01T09:36:25.975Z,58.00
2018-03-01T09:38:53.463Z,58.10
2018-03-01T09:41:20.964Z,57.40
2018-03-01T09:43:48.456Z,56.50
2018-03-01T09:46:15.959Z,56.10
2018-03-01T09:48:43.444Z,56.40
2018-03-01T09:51:10.952Z,55.60
2018-03-01T09:53:38.440Z,56.10
2018-03-01T09:56:06.715Z,54.70
2018-03-01T09:58:34.197Z,54.00
2018-03-01T10:01:01.694Z,54.10
2018-03-01T10:03:29.180Z,54.20
2018-03-01T10:05:56.684Z,53.50
2018-03-01T10:08:24.168Z,53.00
2018-03-01T10:10:51.669Z,52.70
2018-03-01T10:13:19.148Z,52.80
2018-03-01T10:15:46.648Z,52.30
2018-03-01T10:18:14.132Z,52.50
2018-03-01T10:20:41.639Z,52.60
2018-03-01T10:23:09.881Z,51.80
2018-03-01T10:25:37.381Z,51.80
2018-03-01T10:28:06.368Z,51.60
2018-03-01T10:30:33.867Z,51.60
2018-03-01T10:33:02.112Z,52.00
2018-03-01T10:35:29.616Z,51.90
2018-03-01T10:37:57.109Z,53.20
2018-03-01T10:40:25.372Z,50.80
2018-03-01T10:42:52.852Z,50.80
2018-03-01T10:45:21.115Z,50.40
2018-03-01T10:47:48.602Z,50.40
2018-03-01T10:50:16.866Z,49.50
2018-03-01T10:52:44.356Z,49.50
2018-03-01T10:55:11.858Z,50.00
2018-03-01T10:57:39.344Z,49.60
2018-03-01T11:00:07.615Z,49.80
2018-03-01T11:02:35.859Z,49.40
2018-03-01T11:05:03.348Z,49.30
2018-03-01T11:07:30.843Z,51.00
2018-03-01T11:09:58.324Z,49.80
2018-03-01T11:12:25.823Z,48.80
2018-03-01T11:14:53.304Z,48.80
2018-03-01T11:17:20.805Z,48.70
2018-03-01T11:19:49.060Z,48.20
2018-03-01T11:22:16.559Z,48.20
2018-03-01T11:24:44.803Z,48.80
2018-03-01T11:27:12.308Z,48.00
2018-03-01T11:29:39.794Z,47.80
2018-03-01T11:32:08.056Z,48.80
2018-03-01T11:34:35.531Z,48.10
2018-03-01T11:37:03.031Z,48.20
2018-03-01T11:39:31.285Z,47.70
2018-03-01T11:41:58.787Z,47.70
2018-03-01T11:44:27.035Z,47.70
2018-03-01T11:46:54.537Z,47.70
2018-03-01T11:49:22.783Z,47.20
2018-03-01T11:51:51.057Z,47.20
2018-03-01T11:54:18.543Z,47.10
2018-03-01T11:56:46.047Z,47.20
2018-03-01T11:59:13.528Z,47.20
2018-03-01T12:01:41.796Z,47.00
2018-03-01T12:04:09.280Z,46.90
2018-03-01T12:06:37.549Z,46.60
2018-03-01T12:09:05.032Z,46.50
2018-03-01T12:11:32.532Z,46.10
2018-03-01T12:14:00.028Z,46.50
2018-03-01T12:16:27.533Z,46.80
2018-03-01T12:18:55.024Z,46.70
2018-03-01T12:21:23.300Z,46.30
2018-03-01T12:23:50.776Z,46.30
2018-03-01T12:26:19.045Z,46.20
2018-03-01T12:28:46.519Z,46.10
2018-03-01T12:31:14.027Z,46.50
2018-03-01T12:33:41.512Z,47.30
2018-03-01T12:36:09.012Z,46.80
2018-03-01T12:38:36.488Z,46.30
2018-03-01T12:41:03.987Z,46.00
2018-03-01T12:43:32.237Z,46.40
2018-03-01T12:45:59.780Z,46.30
2018-03-01T12:48:28.001Z,46.20
2018-03-01T12:50:55.491Z,46.10
2018-03-01T12:53:22.975Z,46.20
2018-03-01T12:55:51.243Z,46.40
2018-03-01T12:58:18.724Z,46.30
2018-03-01T13:00:46.253Z,46.50
2018-03-01T13:03:13.723Z,46.50
2018-03-01T13:05:41.227Z,46.60
2018-03-01T13:08:08.702Z,46.10
2018-03-01T13:10:37.647Z,46.20
2018-03-01T13:13:05.127Z,46.20
2018-03-01T13:15:32.599Z,45.90
2018-03-01T13:18:00.095Z,46.40
2018-03-01T13:20:27.580Z,46.10
2018-03-01T13:22:55.087Z,46.20
2018-03-01T13:25:22.572Z,45.80
2018-03-01T13:27:50.080Z,45.50
2018-03-01T13:30:19.483Z,45.40
2018-03-01T13:35:53.620Z,45.30
2018-03-01T13:38:21.104Z,45.30
2018-03-01T13:40:48.603Z,45.30
2018-03-01T13:43:16.100Z,45.10
2018-03-01T13:45:45.159Z,45.70
2018-03-01T13:48:12.662Z,45.60
2018-03-01T13:50:40.152Z,45.20
2018-03-01T13:53:08.419Z,44.90
2018-03-01T13:55:35.903Z,44.90
2018-03-01T13:58:04.172Z,46.50
2018-03-01T14:00:31.650Z,46.40
2018-03-01T14:02:59.151Z,45.00
2018-03-01T14:05:26.637Z,45.40
2018-03-01T14:07:56.751Z,44.70
2018-03-01T14:10:24.240Z,44.90
2018-03-01T14:12:52.354Z,45.30
2018-03-01T14:15:19.831Z,45.60
2018-03-01T14:17:53.124Z,45.80
2018-03-01T14:23:54.852Z,45.60
2018-03-01T14:26:26.820Z,45.50
2018-03-01T14:28:57.942Z,45.40
2018-03-01T14:31:25.459Z,45.30
2018-03-01T14:33:52.940Z,46.00
2018-03-01T14:36:21.187Z,45.60
2018-03-01T14:38:48.692Z,45.50
2018-03-01T14:41:16.175Z,45.60
2018-03-01T14:43:45.138Z,45.50
2018-03-01T14:46:12.622Z,45.40
2018-03-01T14:48:40.127Z,45.60
2018-03-01T14:51:07.608Z,46.00
2018-03-01T14:53:35.116Z,45.70
2018-03-01T14:56:02.603Z,46.20
2018-03-01T14:58:30.108Z,47.00
2018-03-01T15:00:57.586Z,46.20
2018-03-01T15:03:25.088Z,45.80
2018-03-01T15:05:52.584Z,46.30
2018-03-01T15:08:20.079Z,46.10
2018-03-01T15:10:48.324Z,46.20
2018-03-01T15:13:15.819Z,46.10
2018-03-01T15:15:43.308Z,46.40
2018-03-01T15:18:11.574Z,46.70
2018-03-01T15:20:39.060Z,46.60
2018-03-01T15:23:07.324Z,46.50
2018-03-01T15:25:34.808Z,46.40
2018-03-01T15:28:02.313Z,46.70
2018-03-01T15:30:29.799Z,46.50
2018-03-01T15:32:57.301Z,46.60
2018-03-01T15:35:24.787Z,46.90
2018-03-01T15:37:52.293Z,46.40
2018-03-01T15:40:19.772Z,46.50
2018-03-01T15:42:47.244Z,46.90
2018-03-01T15:45:14.748Z,47.10
2018-03-01T15:47:42.228Z,47.00
2018-03-01T15:50:09.738Z,46.90
2018-03-01T15:52:37.219Z,46.70
2018-03-01T15:55:04.723Z,46.70
2018-03-01T15:57:32.211Z,47.00
2018-03-01T15:59:59.708Z,46.70
2018-03-01T16:02:27.180Z,47.00
2018-03-01T16:04:55.439Z,46.80
2018-03-01T16:07:22.919Z,46.80
2018-03-01T16:09:50.419Z,46.60
2018-03-01T16:12:17.895Z,46.30
2018-03-01T16:14:45.405Z,46.70
2018-03-01T16:17:12.892Z,46.80
2018-03-01T16:19:40.400Z,47.70
2018-03-01T16:22:07.883Z,47.70
2018-03-01T16:24:35.379Z,47.80
2018-03-01T16:27:02.863Z,47.00
2018-03-01T16:29:30.363Z,47.10
2018-03-01T16:31:58.609Z,47.10
2018-03-01T16:34:26.117Z,47.00
2018-03-01T16:36:54.372Z,47.00
2018-03-01T16:39:21.889Z,47.00
2018-03-01T16:41:50.132Z,47.50
2018-03-01T16:44:17.635Z,47.40
2018-03-01T16:46:45.884Z,47.50
2018-03-01T16:49:13.392Z,47.50
2018-03-01T16:51:41.652Z,47.50
2018-03-01T16:54:09.164Z,47.50
2018-03-01T16:56:36.651Z,47.60
2018-03-01T16:59:04.152Z,47.60
2018-03-01T17:01:36.352Z,47.60
2018-03-01T17:04:03.851Z,47.60
2018-03-01T17:06:32.099Z,47.80
2018-03-01T17:08:59.599Z,47.80
2018-03-01T17:11:27.844Z,47.50
2018-03-01T17:13:55.352Z,47.80
2018-03-01T17:16:22.832Z,47.90
2018-03-01T17:18:51.104Z,48.10
2018-03-01T17:21:18.579Z,48.00
2018-03-01T17:23:46.079Z,48.30
2018-03-01T17:26:13.568Z,48.30
2018-03-01T17:28:41.075Z,48.20
2018-03-01T17:31:08.563Z,48.30
2018-03-01T17:33:36.836Z,48.20
2018-03-01T17:36:04.316Z,48.10
2018-03-01T17:38:31.819Z,48.30
2018-03-01T17:40:59.299Z,49.00
2018-03-01T17:43:26.803Z,48.60
2018-03-01T17:45:54.283Z,48.70
2018-03-01T17:48:21.780Z,48.60
2018-03-01T17:50:50.036Z,48.60
2018-03-01T17:53:17.523Z,49.10
2018-03-01T17:55:45.808Z,49.10
2018-03-01T17:58:13.292Z,49.10
2018-03-01T18:00:41.564Z,48.90
2018-03-01T18:03:09.051Z,48.80
2018-03-01T18:05:37.315Z,49.10
2018-03-01T18:08:04.797Z,49.10
2018-03-01T18:10:32.304Z,48.80
2018-03-01T18:12:59.788Z,48.90
2018-03-01T18:15:27.294Z,49.10
2018-03-01T18:17:54.779Z,48.80
2018-03-01T18:20:22.287Z,48.80
2018-03-01T18:22:49.768Z,49.20
2018-03-01T18:25:17.272Z,49.10
2018-03-01T18:27:44.756Z,49.40
2018-03-01T18:30:12.256Z,49.50
2018-03-01T18:32:39.752Z,49.70
2018-03-01T18:35:07.260Z,49.80
2018-03-01T18:37:34.742Z,49.90
2018-03-01T18:40:02.453Z,49.70
2018-03-01T18:42:29.967Z,50.00
2018-03-01T18:50:21.717Z,50.00
2018-03-01T18:52:52.514Z,50.20
2018-03-01T18:55:22.894Z,50.30
2018-03-01T18:57:54.538Z,50.20
2018-03-01T19:00:27.922Z,50.40
2018-03-01T19:02:57.554Z,50.40
2018-03-01T19:05:28.659Z,50.60
2018-03-01T19:07:57.955Z,50.90
2018-03-01T19:10:26.230Z,50.60
2018-03-01T19:12:54.489Z,50.70
2018-03-01T19:15:22.163Z,50.60
2018-03-01T19:17:50.445Z,50.90
2018-03-01T19:20:17.945Z,50.90
2018-03-01T19:22:45.431Z,50.90
2018-03-01T19:25:13.716Z,50.90
2018-03-01T19:27:41.963Z,50.90
2018-03-01T19:30:09.478Z,50.80
2018-03-01T19:32:37.731Z,50.70
2018-03-01T19:35:05.243Z,50.70
2018-03-01T19:37:32.752Z,50.90
2018-03-01T19:40:00.251Z,51.10
2018-03-01T19:42:27.744Z,50.70
2018-03-01T19:44:56.027Z,51.30
2018-03-01T19:47:24.280Z,51.30
2018-03-01T19:49:51.816Z,51.20
2018-03-01T19:52:20.078Z,51.20
2018-03-01T19:54:48.328Z,50.90
2018-03-01T19:57:15.832Z,50.90
2018-03-01T19:59:44.088Z,50.80
2018-03-01T20:02:11.600Z,50.70
2018-03-01T20:04:39.868Z,51.10
2018-03-01T20:07:07.375Z,51.10
2018-03-01T20:09:34.872Z,51.20
2018-03-01T20:12:02.385Z,51.20
2018-03-01T20:14:29.873Z,51.40
2018-03-01T20:16:58.148Z,51.60
2018-03-01T20:19:26.401Z,51.60
2018-03-01T20:21:53.904Z,51.50
2018-03-01T20:24:22.148Z,52.80
2018-03-01T20:26:49.650Z,52.10
2018-03-01T20:29:17.132Z,52.00
2018-03-01T20:31:44.640Z,52.10
2018-03-01T20:34:12.123Z,52.00
2018-03-01T20:36:39.622Z,52.00
2018-03-01T20:39:07.104Z,52.30
2018-03-01T20:41:34.618Z,52.10
2018-03-01T20:44:02.109Z,52.30
2018-03-01T20:46:29.615Z,52.30
2018-03-01T20:48:57.104Z,52.60
2018-03-01T20:51:25.405Z,52.70
2018-03-01T20:53:52.896Z,52.60
2018-03-01T20:56:20.395Z,53.00
2018-03-01T20:58:47.898Z,52.70
2018-03-01T21:01:16.164Z,53.20
2018-03-01T21:03:43.687Z,53.10
2018-03-01T21:06:11.168Z,53.50
2018-03-01T21:08:38.675Z,53.30
2018-03-01T21:11:06.171Z,53.40
2018-03-01T21:13:34.463Z,53.30
2018-03-01T21:16:02.712Z,53.40
2018-03-01T21:18:30.212Z,53.40
2018-03-01T21:20:58.464Z,53.30
2018-03-01T21:23:25.976Z,53.30
2018-03-01T21:25:56.161Z,53.70
2018-03-01T21:30:59.958Z,53.70
2018-03-01T21:33:27.468Z,53.70
2018-03-01T21:35:55.601Z,53.40
2018-03-01T21:38:23.112Z,53.70
2018-03-01T21:40:50.600Z,54.00
2018-03-01T21:43:18.103Z,53.50
2018-03-01T21:45:52.055Z,53.40
2018-03-01T21:48:19.647Z,54.00
2018-03-01T21:50:47.131Z,53.90
2018-03-01T21:53:14.623Z,53.70
2018-03-01T21:55:42.412Z,53.80
2018-03-01T21:58:09.896Z,54.10
2018-03-01T22:00:37.395Z,54.10
2018-03-01T22:03:04.892Z,54.10
2018-03-01T22:05:32.399Z,53.80
2018-03-01T22:07:59.882Z,53.90
2018-03-01T22:10:28.156Z,54.40
2018-03-01T22:12:55.652Z,54.40
2018-03-01T22:15:23.172Z,54.70
2018-03-01T22:17:50.665Z,54.50
2018-03-01T22:20:18.176Z,54.40
2018-03-01T22:22:45.664Z,54.30
2018-03-01T22:25:13.181Z,54.50
2018-03-01T22:27:40.664Z,54.50
2018-03-01T22:30:08.936Z,55.00
2018-03-01T22:32:36.424Z,54.90
2018-03-01T22:35:04.700Z,54.40
2018-03-01T22:37:32.191Z,54.40
2018-03-01T22:40:00.467Z,54.50
2018-03-01T22:42:28.723Z,54.50
2018-03-01T22:44:56.235Z,54.20
2018-03-01T22:47:23.724Z,54.50
2018-03-01T22:49:51.238Z,55.10
2018-03-01T22:52:18.732Z,54.70
2018-03-01T22:54:47.008Z,55.70
2018-03-01T22:57:14.487Z,55.00
2018-03-01T22:59:42.000Z,54.90
2018-03-01T23:02:09.499Z,54.90
2018-03-01T23:04:37.011Z,54.50
2018-03-01T23:07:05.264Z,54.80
2018-03-01T23:09:32.791Z,54.80
2018-03-01T23:12:00.296Z,55.20
2018-03-01T23:14:27.784Z,55.10
2018-03-01T23:16:55.293Z,54.90
2018-03-01T23:19:22.784Z,54.90
2018-03-01T23:21:51.064Z,56.00
2018-03-01T23:24:18.547Z,55.90
2018-03-01T23:26:46.056Z,56.10
2018-03-01T23:29:13.554Z,55.70
2018-03-01T23:31:41.818Z,55.30
2018-03-01T23:34:09.295Z,55.30
2018-03-01T23:36:36.799Z,56.10
2018-03-01T23:39:04.283Z,56.70
2018-03-01T23:41:31.797Z,56.20
2018-03-01T23:43:59.287Z,56.10
2018-03-01T23:46:27.564Z,56.00
2018-03-01T23:48:55.044Z,55.90
2018-03-01T23:51:23.319Z,56.10
2018-03-01T23:53:50.803Z,56.10
2018-03-01T23:56:19.083Z,56.30
2018-03-01T23:58:46.572Z,56.30
